Time;durP1;ratioP1;P1;durP2;ratioP2;P2;SDS_P1;SDS_P2;PMS_P1;PMS_P2;Temp;Humidity;BMP_temperature;BMP_pressure;BME280_temperature;BME280_humidity;BME280_pressure;Samples;Min_cycle;Max_cycle;Signal;HPM_P1;HPM_P2
2023/04/10 00:00:18;;;;;;;7.57;6.60;;;;;;;8.16;80.57;102047.13;4990678;28;20092;-67
2023/04/10 00:02:43;;;;;;;7.82;6.97;;;;;;;8.16;80.68;102038.94;5002803;28;20164;-66
2023/04/10 00:05:09;;;;;;;8.30;7.00;;;;;;;8.16;80.45;102038.94;5005461;28;20037;-68
2023/04/10 00:07:35;;;;;;;7.65;6.60;;;;;;;8.17;81.48;102028.81;4986497;28;20038;-67
2023/04/10 00:10:00;;;;;;;8.65;6.97;;;;;;;8.14;81.13;102013.63;4988092;28;20456;-66
2023/04/10 00:12:26;;;;;;;8.18;7.20;;;;;;;8.13;81.88;102008.34;4997393;28;20030;-66
2023/04/10 00:14:51;;;;;;;8.30;7.32;;;;;;;8.12;80.73;102010.22;5000168;28;20030;-65
2023/04/10 00:17:16;;;;;;;8.60;7.63;;;;;;;8.14;80.95;102005.41;4998337;28;20038;-68
2023/04/10 00:19:41;;;;;;;8.13;7.28;;;;;;;8.18;80.56;102005.88;4987344;28;20385;-68
2023/04/10 00:22:07;;;;;;;8.25;6.50;;;;;;;8.18;80.39;102000.41;4988031;28;20027;-61
2023/04/10 00:24:33;;;;;;;9.00;7.45;;;;;;;8.22;79.66;101993.53;4993077;28;20053;-62
2023/04/10 00:26:58;;;;;;;7.95;6.97;;;;;;;8.22;80.21;101994.38;5006901;28;20034;-67
2023/04/10 00:29:23;;;;;;;8.05;7.07;;;;;;;8.26;79.58;101989.38;4986022;28;20058;-67
2023/04/10 00:31:49;;;;;;;8.05;7.00;;;;;;;8.22;80.17;101988.91;4997434;28;20037;-66
2023/04/10 00:34:15;;;;;;;8.20;7.18;;;;;;;8.27;79.97;101983.72;4998383;28;20038;-66
2023/04/10 00:36:40;;;;;;;7.88;7.07;;;;;;;8.26;79.39;101972.94;4995900;28;20025;-66
2023/04/10 00:39:06;;;;;;;7.65;6.82;;;;;;;8.28;79.28;101974.47;4980587;28;20426;-67
2023/04/10 00:41:31;;;;;;;8.63;7.05;;;;;;;8.28;78.80;101970.88;5004986;28;20037;-67
2023/04/10 00:43:57;;;;;;;8.45;7.25;;;;;;;8.32;78.89;101980.44;5006473;28;20033;-66
2023/04/10 00:46:23;;;;;;;9.00;7.28;;;;;;;8.31;78.46;101967.75;5003744;28;20613;-67
2023/04/10 00:48:51;;;;;;;7.90;6.45;;;;;;;8.30;79.01;101960.59;5006417;28;20033;-66
2023/04/10 00:51:19;;;;;;;7.55;6.50;;;;;;;8.31;79.02;101960.41;4998149;28;20093;-67
2023/04/10 00:53:45;;;;;;;8.20;6.97;;;;;;;8.30;78.51;101961.44;4994563;28;20031;-67
2023/04/10 00:56:11;;;;;;;7.70;6.57;;;;;;;8.28;78.74;101960.78;5007897;28;20456;-67
2023/04/10 00:58:36;;;;;;;8.55;7.10;;;;;;;8.27;78.54;101969.19;5005120;28;20033;-67
2023/04/10 01:01:02;;;;;;;7.60;6.70;;;;;;;8.25;79.30;101960.31;4990460;28;20359;-67
2023/04/10 01:03:28;;;;;;;8.13;6.57;;;;;;;8.25;77.76;101957.56;5001268;28;20457;-66
2023/04/10 01:06:05;;;;;;;8.18;6.50;;;;;;;8.23;78.40;101962.41;5000563;28;20108;-67
2023/04/10 01:08:54;;;;;;;8.20;6.53;;;;;;;8.24;78.27;101964.09;4996045;28;20026;-67
2023/04/10 01:11:46;;;;;;;8.07;6.80;;;;;;;8.20;78.60;101963.59;4981620;28;20105;-67
2023/04/10 01:14:36;;;;;;;8.18;7.05;;;;;;;8.21;78.30;101959.84;4985275;28;20509;-62
2023/04/10 01:17:27;;;;;;;8.00;7.07;;;;;;;8.15;79.42;101966.06;4985716;28;20030;-66
2023/04/10 01:20:04;;;;;;;8.32;7.10;;;;;;;8.18;78.16;101952.00;4975981;28;20032;-65
2023/04/10 01:22:36;;;;;;;7.90;6.97;;;;;;;8.21;78.49;101950.75;5005201;28;20136;-67
2023/04/10 01:25:13;;;;;;;7.28;6.53;;;;;;;8.15;78.89;101949.63;5006244;28;20411;-67
2023/04/10 01:27:49;;;;;;;7.38;6.55;;;;;;;8.12;78.62;101955.50;5005152;28;20054;-62
2023/04/10 01:30:19;;;;;;;8.55;7.40;;;;;;;8.07;79.07;101942.38;4993155;28;20049;-67
2023/04/10 01:32:45;;;;;;;7.95;7.15;;;;;;;8.07;79.01;101947.00;4993650;28;20026;-66
2023/04/10 01:35:14;;;;;;;8.15;7.35;;;;;;;8.05;79.90;101946.31;5000270;28;20022;-67
2023/04/10 01:37:42;;;;;;;7.65;6.57;;;;;;;8.02;79.95;101938.50;5010064;28;20053;-67
2023/04/10 01:40:13;;;;;;;8.63;7.13;;;;;;;8.04;79.35;101940.00;5008505;28;20503;-66
2023/04/10 01:42:44;;;;;;;7.32;6.50;;;;;;;7.99;79.89;101947.06;5011212;28;20026;-63
2023/04/10 01:45:17;;;;;;;8.00;6.88;;;;;;;7.96;80.32;101939.25;5007610;28;20021;-67
2023/04/10 01:47:42;;;;;;;7.70;6.22;;;;;;;7.95;80.13;101943.00;5007441;28;20064;-68
2023/04/10 01:50:09;;;;;;;7.55;6.75;;;;;;;7.93;80.18;101929.53;5010135;28;20439;-66
2023/04/10 01:52:36;;;;;;;7.90;6.93;;;;;;;7.93;79.89;101936.88;5003754;28;20037;-67
2023/04/10 01:55:02;;;;;;;8.15;6.93;;;;;;;7.90;80.77;101934.50;4999964;28;20487;-65
2023/04/10 01:57:30;;;;;;;7.55;6.68;;;;;;;7.87;80.42;101930.28;5010804;28;20030;-67
2023/04/10 01:59:56;;;;;;;7.93;6.90;;;;;;;7.84;80.69;101921.59;5007514;28;20455;-67
2023/04/10 02:02:21;;;;;;;7.93;6.90;;;;;;;7.83;80.60;101917.16;4992604;28;20130;-66
2023/04/10 02:04:50;;;;;;;8.15;7.28;;;;;;;7.78;80.31;101917.72;5009487;28;20677;-66
2023/04/10 02:07:34;;;;;;;7.90;6.82;;;;;;;7.72;81.32;101911.09;4999569;28;20034;-68
2023/04/10 02:10:23;;;;;;;8.45;7.25;;;;;;;7.66;81.44;101903.66;5011268;28;20025;-66
2023/04/10 02:12:57;;;;;;;8.15;6.97;;;;;;;7.56;82.60;101896.75;5009552;28;20018;-68
2023/04/10 02:15:25;;;;;;;7.88;7.07;;;;;;;7.46;84.07;101900.59;5004466;28;20038;-65
2023/04/10 02:17:51;;;;;;;8.27;7.47;;;;;;;7.40;84.34;101898.59;4981417;28;20054;-68
2023/04/10 02:20:20;;;;;;;9.65;7.40;;;;;;;7.33;84.59;101903.09;4989534;28;20040;-66
2023/04/10 02:22:46;;;;;;;8.00;7.20;;;;;;;7.28;85.10;101900.91;4987690;28;20026;-67
2023/04/10 02:25:11;;;;;;;8.15;7.35;;;;;;;7.21;86.16;101896.38;5005007;28;20030;-68
2023/04/10 02:27:38;;;;;;;8.60;7.70;;;;;;;7.19;85.68;101898.41;5009776;28;20480;-68
2023/04/10 02:30:04;;;;;;;8.25;7.43;;;;;;;7.13;86.48;101897.25;4999865;28;20033;-68
2023/04/10 02:32:31;;;;;;;8.75;7.85;;;;;;;7.12;85.88;101894.72;5004748;28;20030;-68
2023/04/10 02:34:57;;;;;;;8.55;7.65;;;;;;;7.12;86.27;101892.84;5007434;28;20481;-68
2023/04/10 02:37:22;;;;;;;8.90;8.00;;;;;;;7.11;85.15;101891.16;5008514;28;20127;-68
2023/04/10 02:39:47;;;;;;;8.10;7.30;;;;;;;7.12;85.50;101887.38;5008887;28;20061;-66
2023/04/10 02:42:13;;;;;;;8.57;7.68;;;;;;;7.11;85.18;101891.16;5006882;28;20030;-67
2023/04/10 02:44:38;;;;;;;8.70;7.47;;;;;;;7.14;84.90;101896.22;5008530;28;20044;-63
2023/04/10 02:47:04;;;;;;;8.63;7.72;;;;;;;7.14;85.63;101896.22;4997225;28;20054;-68
2023/04/10 02:49:30;;;;;;;8.60;7.30;;;;;;;7.17;85.08;101895.03;4998748;28;20398;-68
2023/04/10 02:51:55;;;;;;;8.88;7.97;;;;;;;7.15;85.68;101897.94;5010077;28;20105;-67
2023/04/10 02:54:21;;;;;;;8.68;7.72;;;;;;;7.16;85.00;101883.25;5007556;28;20108;-67
2023/04/10 02:56:46;;;;;;;8.98;7.63;;;;;;;7.14;84.91;101890.75;5010054;28;20032;-66
2023/04/10 02:59:12;;;;;;;8.73;7.70;;;;;;;7.15;84.75;101883.44;5007074;28;20496;-67
2023/04/10 03:01:38;;;;;;;8.32;7.45;;;;;;;7.14;84.76;101887.19;5008298;28;20030;-65
2023/04/10 03:04:03;;;;;;;8.75;7.63;;;;;;;7.18;84.11;101883.91;5008482;28;20026;-68
2023/04/10 03:06:29;;;;;;;8.35;7.45;;;;;;;7.18;84.13;101889.38;5009564;28;20029;-68
2023/04/10 03:08:55;;;;;;;9.00;7.82;;;;;;;7.19;83.92;101887.47;5007673;28;20069;-65
2023/04/10 03:11:20;;;;;;;8.48;7.57;;;;;;;7.17;84.06;101895.88;4993251;28;20030;-67
2023/04/10 03:13:46;;;;;;;8.75;7.82;;;;;;;7.17;84.16;101895.88;5001406;28;20109;-66
2023/04/10 03:16:11;;;;;;;8.15;7.35;;;;;;;7.12;84.61;101892.84;4999531;28;20068;-67
2023/04/10 03:18:36;;;;;;;8.93;7.95;;;;;;;7.07;84.69;101895.28;4991661;28;20029;-66
2023/04/10 03:21:02;;;;;;;8.38;7.25;;;;;;;7.03;84.65;101899.38;5004989;28;20136;-68
2023/04/10 03:23:27;;;;;;;8.45;7.55;;;;;;;6.97;85.91;101895.50;5003648;28;20034;-68
2023/04/10 03:25:53;;;;;;;8.20;7.40;;;;;;;6.97;85.15;101894.66;5008166;28;20109;-67
2023/04/10 03:28:19;;;;;;;9.07;8.00;;;;;;;6.93;85.68;101888.69;5007745;28;20376;-68
2023/04/10 03:30:44;;;;;;;8.45;7.50;;;;;;;6.92;85.59;101892.47;5007458;28;20029;-67
2023/04/10 03:33:10;;;;;;;9.38;8.15;;;;;;;6.88;85.55;101891.13;4991352;28;20189;-68
2023/04/10 03:35:35;;;;;;;9.27;8.27;;;;;;;6.87;85.77;101889.44;4992756;28;20054;-65
2023/04/10 03:38:00;;;;;;;9.48;8.48;;;;;;;6.85;86.34;101887.94;4991039;28;20068;-67
2023/04/10 03:40:26;;;;;;;9.20;8.15;;;;;;;6.81;86.46;101881.13;4997977;28;20034;-68
2023/04/10 03:42:51;;;;;;;9.13;7.68;;;;;;;6.76;86.61;101874.31;5001583;28;20026;-67
2023/04/10 03:45:16;;;;;;;8.75;7.85;;;;;;;6.74;86.57;101870.94;4999451;28;20413;-68
2023/04/10 03:47:41;;;;;;;9.00;7.68;;;;;;;6.73;86.54;101877.41;5006544;28;20034;-67
2023/04/10 03:50:07;;;;;;;9.18;8.23;;;;;;;6.74;86.70;101867.31;5007024;28;20037;-68
2023/04/10 03:52:32;;;;;;;9.40;8.48;;;;;;;6.69;86.69;101867.88;4996156;28;20097;-67
2023/04/10 03:54:57;;;;;;;9.73;8.73;;;;;;;6.68;86.57;101863.44;5001172;28;20598;-68
2023/04/10 03:57:23;;;;;;;10.50;8.63;;;;;;;6.68;86.54;101863.44;5008779;28;20032;-68
2023/04/10 03:59:48;;;;;;;9.02;8.02;;;;;;;6.65;86.50;101860.25;4999080;28;20396;-66
2023/04/10 04:02:14;;;;;;;9.15;8.25;;;;;;;6.64;86.67;101863.97;5006155;28;20049;-63
2023/04/10 04:04:39;;;;;;;9.75;8.75;;;;;;;6.61;87.07;101857.00;4997204;28;20030;-67
2023/04/10 04:07:04;;;;;;;9.45;8.23;;;;;;;6.58;87.08;101856.50;4999686;28;20108;-68
2023/04/10 04:09:30;;;;;;;9.98;8.98;;;;;;;6.58;86.95;101853.78;4995607;28;20069;-64
2023/04/10 04:11:55;;;;;;;9.85;8.85;;;;;;;6.54;87.10;101847.84;5003616;28;20038;-62
2023/04/10 04:14:21;;;;;;;9.50;8.50;;;;;;;6.50;87.74;101843.78;5005190;28;20053;-66
2023/04/10 04:16:46;;;;;;;9.38;8.38;;;;;;;6.48;87.14;101843.94;4996464;28;20444;-66
2023/04/10 04:19:12;;;;;;;9.02;8.13;;;;;;;6.47;87.25;101844.13;4993181;28;20032;-63
2023/04/10 04:21:37;;;;;;;9.55;8.50;;;;;;;6.46;86.58;101842.44;5001266;28;20116;-67
2023/04/10 04:24:02;;;;;;;9.80;8.80;;;;;;;6.48;87.15;101843.09;4984821;28;20474;-68
2023/04/10 04:26:29;;;;;;;9.43;8.27;;;;;;;6.48;86.27;101845.81;5004517;28;20088;-68
2023/04/10 04:28:54;;;;;;;8.73;7.82;;;;;;;6.47;86.53;101839.50;5003724;28;20076;-67
2023/04/10 04:31:20;;;;;;;9.23;8.27;;;;;;;6.47;86.55;101835.94;4980894;28;20417;-68
2023/04/10 04:33:45;;;;;;;9.55;8.55;;;;;;;6.47;86.25;101834.06;5001937;28;20085;-66
2023/04/10 04:36:10;;;;;;;8.80;7.90;;;;;;;6.44;86.29;101831.69;4977595;28;20025;-65
2023/04/10 04:38:35;;;;;;;9.07;8.18;;;;;;;6.45;86.49;101840.75;5003173;28;20404;-66
2023/04/10 04:41:01;;;;;;;9.40;8.00;;;;;;;6.42;87.11;101835.63;4998088;28;20029;-68
2023/04/10 04:43:26;;;;;;;8.98;8.07;;;;;;;6.39;87.01;101836.00;4997266;28;20450;-67
2023/04/10 04:45:51;;;;;;;8.93;8.02;;;;;;;6.36;88.01;101830.88;4999028;28;20092;-68
2023/04/10 04:48:16;;;;;;;9.15;8.20;;;;;;;6.32;88.88;101826.81;4986261;28;20041;-67
2023/04/10 04:50:42;;;;;;;9.88;8.80;;;;;;;6.28;89.46;101823.59;5004943;28;21103;-67
2023/04/10 04:53:08;;;;;;;9.70;8.70;;;;;;;6.24;89.41;101825.84;5006467;28;20630;-62
2023/04/10 04:55:33;;;;;;;9.75;8.43;;;;;;;6.20;89.89;101824.50;5005662;28;20034;-65
2023/04/10 04:57:58;;;;;;;9.85;8.88;;;;;;;6.19;89.52;101820.06;4979800;28;20033;-67
2023/04/10 05:00:24;;;;;;;9.35;8.45;;;;;;;6.20;89.22;101821.75;5001174;28;20030;-67
2023/04/10 05:02:49;;;;;;;9.52;8.52;;;;;;;6.20;89.53;101823.66;5006471;28;20036;-67
2023/04/10 05:05:14;;;;;;;9.70;8.63;;;;;;;6.22;88.91;101822.41;5005820;28;20045;-65
2023/04/10 05:07:40;;;;;;;9.20;8.25;;;;;;;6.23;89.35;101818.69;5006856;28;20036;-67
2023/04/10 05:10:05;;;;;;;10.05;9.05;;;;;;;6.26;89.06;101806.56;4993201;28;20120;-68
2023/04/10 05:12:31;;;;;;;9.18;8.27;;;;;;;6.29;88.24;101810.81;5003357;28;20045;-63
2023/04/10 05:14:56;;;;;;;9.10;8.15;;;;;;;6.31;87.87;101806.03;5004896;28;20038;-67
2023/04/10 05:17:21;;;;;;;9.18;8.27;;;;;;;6.33;88.25;101801.22;5002628;28;20125;-68
2023/04/10 05:19:46;;;;;;;9.32;8.43;;;;;;;6.35;88.29;101791.00;5009326;28;20034;-67
2023/04/10 05:22:12;;;;;;;9.02;8.13;;;;;;;6.37;88.07;101789.78;5012399;28;20037;-63
2023/04/10 05:24:37;;;;;;;9.23;8.32;;;;;;;6.41;88.08;101790.28;4993757;28;20053;-65
2023/04/10 05:27:02;;;;;;;9.43;7.72;;;;;;;6.42;88.25;101798.28;5003477;28;20390;-67
2023/04/10 05:29:28;;;;;;;9.05;8.15;;;;;;;6.50;87.64;101800.13;5008083;28;20034;-68
2023/04/10 05:31:53;;;;;;;8.75;7.85;;;;;;;6.56;86.57;101785.72;5013186;28;20100;-67
2023/04/10 05:34:18;;;;;;;9.25;8.25;;;;;;;6.63;86.09;101794.03;5002864;28;20027;-63
2023/04/10 05:36:44;;;;;;;8.88;8.00;;;;;;;6.70;86.52;101792.28;5002519;28;20362;-66
2023/04/10 05:39:09;;;;;;;8.68;7.78;;;;;;;6.76;85.41;101795.13;4998252;28;20030;-69
2023/04/10 05:41:34;;;;;;;8.30;7.50;;;;;;;6.88;84.24;101797.44;5008499;28;20026;-67
2023/04/10 05:44:00;;;;;;;8.13;7.15;;;;;;;6.93;84.37;101797.72;5008764;28;20078;-68
2023/04/10 05:46:25;;;;;;;8.98;8.07;;;;;;;7.01;84.35;101805.88;5013497;28;20065;-65
2023/04/10 05:48:51;;;;;;;8.85;7.70;;;;;;;7.07;84.46;101796.09;5012862;28;20030;-68
2023/04/10 05:51:17;;;;;;;8.85;7.95;;;;;;;7.15;83.58;101787.81;5011212;28;20115;-68
2023/04/10 05:53:42;;;;;;;9.02;8.13;;;;;;;7.23;82.82;101793.19;5012841;28;20477;-67
2023/04/10 05:56:07;;;;;;;8.75;7.85;;;;;;;7.27;83.21;101798.09;5011043;28;20036;-64
2023/04/10 05:58:33;;;;;;;7.90;7.07;;;;;;;7.34;82.50;101800.09;5011522;28;20445;-68
2023/04/10 06:00:58;;;;;;;9.10;7.50;;;;;;;7.43;81.79;101807.19;5012575;28;20037;-69
2023/04/10 06:03:26;;;;;;;8.60;7.70;;;;;;;7.51;81.03;101801.63;5013245;28;20041;-68
2023/04/10 06:05:51;;;;;;;9.35;8.40;;;;;;;7.57;80.98;101798.16;5010238;28;20018;-68
2023/04/10 06:08:16;;;;;;;8.27;7.35;;;;;;;7.70;79.51;101797.47;5029114;28;20048;-69
2023/04/10 06:10:41;;;;;;;8.82;7.57;;;;;;;7.73;79.88;101802.56;5013312;28;20494;-64
2023/04/10 06:13:07;;;;;;;8.70;7.80;;;;;;;7.83;79.98;101799.56;5012252;28;20045;-67
2023/04/10 06:15:32;;;;;;;9.25;8.25;;;;;;;7.91;79.36;101799.47;5010113;28;20099;-67
2023/04/10 06:17:57;;;;;;;8.68;7.78;;;;;;;7.97;79.44;101785.88;5028117;28;20109;-68
2023/04/10 06:20:22;;;;;;;10.15;7.72;;;;;;;8.02;78.57;101780.69;5013124;28;20042;-63
2023/04/10 06:22:48;;;;;;;8.82;7.80;;;;;;;8.11;78.55;101781.44;5010085;28;20025;-66
2023/04/10 06:25:13;;;;;;;8.60;7.75;;;;;;;8.19;79.50;101781.31;5009429;28;20022;-68
2023/04/10 06:27:38;;;;;;;8.68;7.70;;;;;;;8.28;77.58;101776.56;5007772;28;20388;-66
2023/04/10 06:30:04;;;;;;;7.82;7.03;;;;;;;8.34;76.73;101773.06;5008845;28;20117;-62
2023/04/10 06:32:30;;;;;;;8.20;7.35;;;;;;;8.40;76.79;101764.09;5008826;28;20427;-67
2023/04/10 06:34:56;;;;;;;8.15;7.32;;;;;;;8.48;77.56;101769.47;5009237;28;20034;-68
2023/04/10 06:37:32;;;;;;;9.85;7.50;;;;;;;8.57;76.62;101761.97;5007459;28;20037;-67
2023/04/10 06:40:15;;;;;;;7.80;6.97;;;;;;;8.65;76.07;101755.50;5008141;28;20393;-64
2023/04/10 06:42:40;;;;;;;7.63;6.82;;;;;;;8.67;74.74;101759.75;5005368;28;20085;-66
2023/04/10 06:45:06;;;;;;;8.23;6.90;;;;;;;8.73;76.26;101750.75;5007982;28;20034;-67
2023/04/10 06:47:32;;;;;;;8.23;7.43;;;;;;;8.80;75.81;101748.91;4990060;28;20088;-62
2023/04/10 06:49:57;;;;;;;8.15;7.18;;;;;;;8.83;74.60;101745.78;4990413;28;20109;-66
2023/04/10 06:52:23;;;;;;;7.63;6.35;;;;;;;8.92;74.34;101734.66;4987259;28;20026;-63
2023/04/10 06:54:48;;;;;;;8.10;7.30;;;;;;;8.94;75.62;101729.84;4988725;28;20047;-65
2023/04/10 06:57:13;;;;;;;8.50;7.18;;;;;;;8.99;74.93;101724.63;4990227;28;20037;-64
2023/04/10 06:59:39;;;;;;;7.80;7.00;;;;;;;9.03;73.50;101720.44;4990631;28;20038;-67
2023/04/10 07:02:04;;;;;;;7.43;6.65;;;;;;;9.03;73.18;101710.34;4989717;28;20038;-67
2023/04/10 07:04:30;;;;;;;8.40;7.50;;;;;;;9.09;73.94;101714.16;4986568;28;20385;-67
2023/04/10 07:06:55;;;;;;;7.72;6.93;;;;;;;9.18;74.54;101709.38;4989934;28;20026;-66
2023/04/10 07:09:21;;;;;;;8.63;7.50;;;;;;;9.26;73.69;101707.31;4985356;28;20041;-67
2023/04/10 07:11:46;;;;;;;7.60;6.60;;;;;;;9.30;73.93;101705.88;4989276;28;20034;-67
2023/04/10 07:14:11;;;;;;;7.68;6.45;;;;;;;9.39;73.63;101702.97;4989811;28;20026;-65
2023/04/10 07:16:37;;;;;;;7.68;6.88;;;;;;;9.44;72.30;101698.56;4987996;28;20072;-62
2023/04/10 07:19:02;;;;;;;7.78;6.97;;;;;;;9.50;72.94;101695.03;4985829;28;20045;-65
2023/04/10 07:21:27;;;;;;;8.07;7.28;;;;;;;9.60;72.62;101687.25;4987437;28;20045;-63
2023/04/10 07:23:53;;;;;;;8.90;7.70;;;;;;;9.74;72.26;101679.94;4986291;28;20045;-63
2023/04/10 07:26:18;;;;;;;8.68;7.22;;;;;;;9.88;72.78;101678.06;4988397;28;20430;-63
2023/04/10 07:28:44;;;;;;;7.70;6.90;;;;;;;9.97;73.70;101674.09;5003857;28;20158;-63
2023/04/10 07:31:10;;;;;;;7.80;7.00;;;;;;;10.09;69.19;101679.84;4988446;28;20105;-63
2023/04/10 07:33:37;;;;;;;7.43;6.63;;;;;;;10.20;68.35;101676.50;4989067;28;20026;-63
2023/04/10 07:36:04;;;;;;;7.15;6.45;;;;;;;10.32;68.20;101668.53;4988802;28;20037;-63
2023/04/10 07:38:30;;;;;;;7.50;6.20;;;;;;;10.44;68.15;101666.88;4988750;28;20045;-63
2023/04/10 07:40:56;;;;;;;7.05;6.05;;;;;;;10.59;66.35;101662.00;4989544;28;20034;-63
2023/04/10 07:43:22;;;;;;;6.82;5.90;;;;;;;10.69;65.47;101653.31;4988646;28;20448;-62
2023/04/10 07:45:47;;;;;;;6.65;5.82;;;;;;;10.88;64.56;101663.47;4994638;28;20126;-63
2023/04/10 07:48:12;;;;;;;6.93;5.97;;;;;;;11.18;63.60;101643.75;4988974;28;20444;-64
2023/04/10 07:50:37;;;;;;;6.82;5.82;;;;;;;11.49;61.27;101647.66;5008897;28;20025;-62
2023/04/10 07:53:06;;;;;;;7.00;5.93;;;;;;;11.74;59.99;101634.88;5008659;28;20024;-62
2023/04/10 07:55:36;;;;;;;8.00;6.20;;;;;;;12.11;59.90;101637.84;4997872;28;20026;-63
2023/04/10 07:58:01;;;;;;;7.07;6.18;;;;;;;12.46;58.34;101632.75;4982890;28;20121;-63
2023/04/10 08:00:27;;;;;;;7.60;6.80;;;;;;;12.76;58.58;101627.41;4986270;28;20101;-63
2023/04/10 08:02:52;;;;;;;7.13;5.63;;;;;;;13.27;57.06;101625.41;4984086;28;20034;-64
2023/04/10 08:05:17;;;;;;;6.95;5.90;;;;;;;13.35;54.55;101616.84;4988144;28;20045;-63
2023/04/10 08:07:42;;;;;;;7.00;5.63;;;;;;;13.50;55.21;101614.53;4987459;28;20154;-64
2023/04/10 08:10:08;;;;;;;6.95;6.00;;;;;;;13.47;53.89;101615.00;4988512;28;20034;-62
2023/04/10 08:12:35;;;;;;;7.75;5.40;;;;;;;13.37;54.52;101620.22;4988104;28;20034;-64
2023/04/10 08:15:00;;;;;;;6.20;5.07;;;;;;;13.09;53.58;101607.78;5002689;28;20034;-64
2023/04/10 08:17:26;;;;;;;7.05;5.10;;;;;;;12.94;55.38;101613.66;5000287;28;20447;-64
2023/04/10 08:19:51;;;;;;;6.82;4.88;;;;;;;12.73;55.82;101603.06;4989041;28;20018;-67
2023/04/10 08:22:16;;;;;;;7.28;5.60;;;;;;;12.64;55.09;101601.66;4987906;28;20034;-66
2023/04/10 08:24:41;;;;;;;6.40;5.28;;;;;;;12.63;55.73;101602.72;4984913;28;20129;-66
2023/04/10 08:27:06;;;;;;;5.78;4.88;;;;;;;12.57;55.58;101596.22;4986852;28;20048;-65
2023/04/10 08:29:32;;;;;;;6.00;4.90;;;;;;;12.60;56.32;101605.94;4986733;28;20045;-67
2023/04/10 08:31:59;;;;;;;6.32;5.28;;;;;;;12.64;55.69;101598.91;4986037;28;20041;-65
2023/04/10 08:34:25;;;;;;;7.07;5.70;;;;;;;12.79;56.24;101602.16;4985155;28;20026;-65
2023/04/10 08:36:50;;;;;;;6.68;5.15;;;;;;;12.92;55.82;101603.91;5000932;28;20083;-66
2023/04/10 08:39:15;;;;;;;6.35;5.13;;;;;;;13.01;54.62;101593.44;5006055;28;20022;-67
2023/04/10 08:41:41;;;;;;;6.30;5.10;;;;;;;13.13;54.68;101595.22;5006734;28;20384;-67
2023/04/10 08:44:07;;;;;;;6.65;5.13;;;;;;;13.21;55.72;101597.69;5006074;28;20056;-63
2023/04/10 08:46:35;;;;;;;7.70;5.50;;;;;;;13.23;54.28;101586.44;5003367;28;20121;-67
2023/04/10 08:49:03;;;;;;;6.38;5.18;;;;;;;13.29;53.82;101585.50;4992092;28;20038;-68
2023/04/10 08:51:45;;;;;;;6.00;5.10;;;;;;;13.30;55.08;101576.16;5000386;28;20041;-64
2023/04/10 08:54:17;;;;;;;5.47;4.55;;;;;;;13.27;54.48;101578.53;4996781;28;20026;-67
2023/04/10 08:56:47;;;;;;;6.25;5.38;;;;;;;13.20;56.77;101578.59;5000195;28;20040;-67
2023/04/10 08:59:13;;;;;;;6.25;4.68;;;;;;;13.27;56.06;101579.38;5004210;28;20315;-68
2023/04/10 09:01:39;;;;;;;7.03;4.90;;;;;;;13.26;55.16;101583.19;5005519;28;20057;-64
2023/04/10 09:04:05;;;;;;;6.40;5.07;;;;;;;13.30;53.40;101580.84;4997049;28;20029;-67
2023/04/10 09:06:30;;;;;;;6.40;4.97;;;;;;;13.20;54.53;101573.91;4997116;28;20109;-65
2023/04/10 09:08:58;;;;;;;6.13;5.10;;;;;;;13.21;54.80;101572.00;5005706;28;20160;-67
2023/04/10 09:11:23;;;;;;;7.10;5.25;;;;;;;13.25;54.66;101564.97;5005748;28;20018;-65
2023/04/10 09:13:49;;;;;;;6.25;5.20;;;;;;;13.18;56.00;101575.22;5005995;28;20037;-67
2023/04/10 09:16:15;;;;;;;6.30;4.82;;;;;;;13.13;56.66;101572.31;4996638;28;20152;-59
2023/04/10 09:18:43;;;;;;;6.43;5.35;;;;;;;13.15;56.38;101567.41;4998438;28;20053;-66
2023/04/10 09:21:14;;;;;;;6.75;5.25;;;;;;;13.21;56.12;101555.44;5005794;28;20034;-65
2023/04/10 09:23:44;;;;;;;6.07;5.20;;;;;;;13.14;56.70;101551.94;5005078;28;20100;-64
2023/04/10 09:26:30;;;;;;;5.90;4.68;;;;;;;13.12;55.71;101549.38;5006157;28;20141;-64
2023/04/10 09:28:57;;;;;;;6.28;4.70;;;;;;;13.14;56.98;101551.94;4989863;28;20026;-65
2023/04/10 09:31:31;;;;;;;6.70;5.60;;;;;;;13.21;57.11;101537.00;4985193;28;20378;-63
2023/04/10 09:34:21;;;;;;;5.95;5.07;;;;;;;13.32;57.12;101535.38;4986076;28;20173;-66
2023/04/10 09:36:58;;;;;;;5.85;4.90;;;;;;;13.45;57.40;101537.13;4986314;28;20238;-66
2023/04/10 09:39:39;;;;;;;5.88;5.20;;;;;;;13.49;56.30;101522.63;4966212;28;20031;-66
2023/04/10 09:42:05;;;;;;;5.75;4.90;;;;;;;13.47;54.98;101524.78;4986520;28;20118;-64
2023/04/10 09:44:33;;;;;;;6.45;5.15;;;;;;;13.47;56.38;101512.88;4984727;28;20101;-65
2023/04/10 09:47:20;;;;;;;6.05;4.78;;;;;;;13.57;55.60;101515.09;5001273;28;20316;-66
2023/04/10 09:49:47;;;;;;;6.10;5.10;;;;;;;13.50;56.58;101506.91;5006045;28;20037;-66
2023/04/10 09:52:22;;;;;;;6.85;4.85;;;;;;;13.53;56.43;101495.38;5003907;28;20376;-63
2023/04/10 09:54:47;;;;;;;6.72;4.95;;;;;;;13.61;57.21;101497.00;5005739;28;20030;-62
2023/04/10 09:57:17;;;;;;;6.10;5.00;;;;;;;13.63;56.79;101497.59;5010785;28;20040;-64
2023/04/10 09:59:46;;;;;;;6.00;5.05;;;;;;;13.70;56.26;101492.81;5027799;28;20029;-62
2023/04/10 10:02:12;;;;;;;5.07;4.35;;;;;;;13.64;55.70;101502.06;5029479;28;20229;-66
2023/04/10 10:04:41;;;;;;;5.82;4.65;;;;;;;13.63;56.69;101497.59;5011527;28;20026;-60
2023/04/10 10:07:06;;;;;;;5.60;4.82;;;;;;;13.74;55.91;101483.84;5009058;28;20037;-65
2023/04/10 10:09:32;;;;;;;5.90;4.90;;;;;;;13.92;55.86;101485.66;5007870;28;20034;-66
2023/04/10 10:11:59;;;;;;;5.70;4.78;;;;;;;13.96;54.71;101486.88;5009096;28;20080;-67
2023/04/10 10:14:27;;;;;;;5.60;4.43;;;;;;;13.98;55.37;101479.19;5006462;28;20061;-61
2023/04/10 10:16:57;;;;;;;6.75;5.00;;;;;;;14.11;55.56;101483.66;5007139;28;20176;-66
2023/04/10 10:19:31;;;;;;;5.68;4.78;;;;;;;14.22;55.23;101465.41;4989555;28;20034;-66
2023/04/10 10:22:00;;;;;;;6.07;4.35;;;;;;;14.45;55.84;101457.13;4989620;28;20062;-67
2023/04/10 10:24:27;;;;;;;5.82;4.78;;;;;;;14.64;53.96;101451.47;4988249;28;20331;-66
2023/04/10 10:26:54;;;;;;;6.57;4.80;;;;;;;15.20;54.88;101460.91;5003329;28;20021;-62
2023/04/10 10:29:22;;;;;;;4.87;4.33;;;;;;;15.93;50.84;101443.47;5007866;28;20484;-62
2023/04/10 10:31:48;;;;;;;5.80;4.35;;;;;;;16.32;51.29;101432.41;5004272;28;20273;-67
2023/04/10 10:34:15;;;;;;;4.40;3.88;;;;;;;16.48;49.27;101439.88;5007718;28;20033;-69
2023/04/10 10:36:41;;;;;;;4.88;3.97;;;;;;;17.03;48.49;101444.53;5009214;28;20030;-68
2023/04/10 10:39:35;;;;;;;6.07;4.20;;;;;;;17.30;47.64;101429.81;5005875;28;20508;-59
2023/04/10 10:42:26;;;;;;;5.50;4.07;;;;;;;17.33;49.46;101424.56;4983575;28;20041;-67
2023/04/10 10:45:00;;;;;;;5.10;4.35;;;;;;;16.89;49.19;101420.19;5009405;28;20077;-67
2023/04/10 10:47:31;;;;;;;7.38;3.92;;;;;;;16.79;49.27;101426.47;4989860;28;20121;-65
2023/04/10 10:50:01;;;;;;;6.20;3.83;;;;;;;16.56;51.39;101414.47;4987570;28;20049;-67
2023/04/10 10:52:43;;;;;;;6.43;4.03;;;;;;;16.68;51.83;101408.81;4989845;28;20034;-67
2023/04/10 10:55:20;;;;;;;4.82;4.05;;;;;;;16.88;49.71;101397.16;4989799;28;20027;-66
2023/04/10 10:57:53;;;;;;;4.53;3.72;;;;;;;16.96;49.76;101396.69;4990204;28;20133;-67
2023/04/10 11:00:20;;;;;;;3.67;3.25;;;;;;;16.97;47.26;101390.03;4989031;28;20022;-67
2023/04/10 11:03:09;;;;;;;4.45;3.30;;;;;;;17.20;49.01;101388.06;4989822;28;20382;-66
2023/04/10 11:05:55;;;;;;;5.68;3.47;;;;;;;17.53;47.18;101379.50;4989726;28;20539;-67
2023/04/10 11:08:32;;;;;;;3.70;2.83;;;;;;;17.91;45.78;101380.41;5006910;28;20688;-67
2023/04/10 11:11:08;;;;;;;5.00;3.30;;;;;;;17.67;45.27;101388.22;4988822;28;20404;-66
2023/04/10 11:13:36;;;;;;;3.20;2.90;;;;;;;17.61;46.42;101376.25;4989128;28;20041;-66
2023/04/10 11:16:03;;;;;;;3.45;3.15;;;;;;;17.84;46.57;101377.88;4986508;28;20234;-66
2023/04/10 11:19:00;;;;;;;4.10;3.22;;;;;;;18.05;45.77;101358.56;4988381;28;20042;-66
2023/04/10 11:21:27;;;;;;;4.30;2.83;;;;;;;18.41;43.18;101348.47;4971979;28;20019;-65
2023/04/10 11:23:52;;;;;;;4.20;2.97;;;;;;;18.70;44.02;101351.66;4985782;28;20495;-67
2023/04/10 11:26:33;;;;;;;3.38;3.08;;;;;;;18.90;42.75;101337.78;4989373;28;20054;-65
2023/04/10 11:29:00;;;;;;;5.32;3.40;;;;;;;18.88;42.59;101342.81;4987787;28;20084;-67
2023/04/10 11:31:26;;;;;;;3.38;2.90;;;;;;;18.61;43.29;101333.81;4986707;28;20031;-67
2023/04/10 11:34:03;;;;;;;3.78;2.78;;;;;;;18.31;43.23;101337.28;4987178;28;20053;-64